Time;durP1;ratioP1;P1;durP2;ratioP2;P2;SDS_P1;SDS_P2;PMS_P1;PMS_P2;Temp;Humidity;BMP_temperature;BMP_pressure;BME280_temperature;BME280_humidity;BME280_pressure;Samples;Min_cycle;Max_cycle;Signal;HPM_P1;HPM_P2
2023/01/26 00:00:53;;;;;;;16.50;11.30;;;4.40;99.90;;;;;;5053632;28;20033;-47
2023/01/26 00:03:19;;;;;;;15.82;11.05;;;4.30;99.90;;;;;;5020948;28;20099;-46
2023/01/26 00:05:45;;;;;;;16.58;11.20;;;4.30;99.90;;;;;;5036794;28;20504;-46
2023/01/26 00:08:11;;;;;;;19.27;12.13;;;4.20;99.90;;;;;;5053781;28;20064;-46
2023/01/26 00:10:38;;;;;;;16.30;10.80;;;4.10;99.90;;;;;;5013965;28;20038;-47
2023/01/26 00:13:05;;;;;;;17.15;11.25;;;4.10;99.90;;;;;;4981249;28;20038;-46
2023/01/26 00:15:32;;;;;;;16.88;11.20;;;4.20;99.90;;;;;;5013618;28;20162;-46
2023/01/26 00:17:59;;;;;;;17.98;12.00;;;4.20;99.90;;;;;;5014028;28;20041;-47
2023/01/26 00:20:25;;;;;;;19.20;11.13;;;4.30;99.90;;;;;;5013820;28;20041;-47
2023/01/26 00:22:51;;;;;;;17.73;11.88;;;4.30;99.90;;;;;;4997392;28;20555;-47
2023/01/26 00:25:17;;;;;;;18.15;10.70;;;4.30;99.90;;;;;;5013738;28;20042;-47
2023/01/26 00:27:43;;;;;;;15.30;10.32;;;4.20;99.90;;;;;;5030430;28;20132;-47
2023/01/26 00:30:09;;;;;;;15.90;11.32;;;4.30;99.90;;;;;;5033489;28;20500;-46
2023/01/26 00:32:35;;;;;;;17.55;11.50;;;4.10;99.90;;;;;;4999623;28;20132;-47
2023/01/26 00:35:02;;;;;;;17.80;10.95;;;4.10;99.90;;;;;;5033329;28;20087;-46
2023/01/26 00:37:28;;;;;;;17.33;11.10;;;4.10;99.90;;;;;;5033272;28;20152;-47
2023/01/26 00:39:53;;;;;;;18.67;11.15;;;4.10;99.90;;;;;;5016520;28;20124;-46
2023/01/26 00:42:20;;;;;;;15.55;10.48;;;4.10;99.90;;;;;;5033165;28;20029;-47
2023/01/26 00:44:46;;;;;;;16.20;11.32;;;4.00;99.90;;;;;;5032837;28;20481;-46
2023/01/26 00:47:13;;;;;;;15.60;10.88;;;4.00;99.90;;;;;;5039515;28;20040;-47
2023/01/26 00:49:39;;;;;;;20.15;11.43;;;4.10;99.90;;;;;;5074926;28;20524;-47
2023/01/26 00:52:05;;;;;;;16.20;11.13;;;4.10;99.90;;;;;;5075329;28;20111;-47
2023/01/26 00:54:31;;;;;;;17.67;11.13;;;4.20;99.90;;;;;;5074890;28;20032;-47
2023/01/26 00:56:57;;;;;;;16.48;10.40;;;4.20;99.90;;;;;;5074957;28;20028;-46
2023/01/26 00:59:23;;;;;;;16.98;10.45;;;4.20;99.90;;;;;;5023143;28;20047;-47
2023/01/26 01:01:49;;;;;;;16.02;11.05;;;4.10;99.90;;;;;;5056238;28;20037;-46
2023/01/26 01:04:15;;;;;;;17.80;10.82;;;4.20;99.90;;;;;;5039489;28;20029;-46
2023/01/26 01:06:42;;;;;;;15.10;10.57;;;4.10;99.90;;;;;;5074612;28;20028;-46
2023/01/26 01:09:08;;;;;;;17.08;11.57;;;4.00;99.90;;;;;;5075095;28;20028;-47
2023/01/26 01:11:34;;;;;;;15.07;10.52;;;4.10;99.90;;;;;;5076516;28;20104;-47
2023/01/26 01:14:01;;;;;;;15.38;10.27;;;4.00;99.90;;;;;;5076241;28;20051;-47
2023/01/26 01:16:27;;;;;;;16.73;10.70;;;4.00;99.90;;;;;;5076303;28;20032;-47
2023/01/26 01:18:54;;;;;;;16.88;11.63;;;4.00;99.90;;;;;;5076493;28;20032;-47
2023/01/26 01:21:21;;;;;;;15.05;10.27;;;4.00;99.90;;;;;;5074865;28;20388;-46
2023/01/26 01:23:46;;;;;;;17.33;10.48;;;4.10;99.90;;;;;;5074151;28;20476;-47
2023/01/26 01:26:14;;;;;;;15.05;10.75;;;4.00;99.90;;;;;;5074365;28;20037;-46
2023/01/26 01:28:41;;;;;;;14.27;9.90;;;4.00;99.90;;;;;;5074038;28;20095;-46
2023/01/26 01:31:09;;;;;;;15.75;10.75;;;4.00;99.90;;;;;;5074087;28;20539;-47
2023/01/26 01:33:35;;;;;;;14.90;9.90;;;4.10;99.90;;;;;;5073885;28;20055;-46
2023/01/26 01:36:05;;;;;;;14.93;9.65;;;4.00;99.90;;;;;;5055707;28;20561;-46
2023/01/26 01:38:32;;;;;;;14.15;9.75;;;4.20;99.90;;;;;;5055427;28;20111;-46
2023/01/26 01:40:57;;;;;;;14.57;8.90;;;4.00;99.90;;;;;;5074050;28;20043;-47
2023/01/26 01:43:24;;;;;;;13.88;9.40;;;3.90;99.90;;;;;;5074466;28;20024;-46
2023/01/26 01:45:52;;;;;;;18.35;10.63;;;3.90;99.90;;;;;;5073746;28;20047;-46
2023/01/26 01:49:07;;;;;;;16.27;10.43;;;3.90;99.90;;;;;;5055679;28;20547;-47
2023/01/26 01:51:37;;;;;;;14.35;9.93;;;4.00;99.90;;;;;;5073928;28;20115;-46
2023/01/26 01:54:09;;;;;;;15.20;10.15;;;4.00;99.90;;;;;;5074175;28;20036;-46
2023/01/26 01:56:38;;;;;;;15.95;10.07;;;4.00;99.90;;;;;;5073690;28;20056;-46
2023/01/26 01:59:05;;;;;;;15.23;10.43;;;4.00;99.90;;;;;;5073646;28;20028;-46
2023/01/26 02:01:31;;;;;;;14.40;9.63;;;3.90;99.90;;;;;;5073562;28;20458;-46
2023/01/26 02:04:00;;;;;;;16.80;11.07;;;3.90;99.90;;;;;;5073575;28;20107;-47
2023/01/26 02:06:51;;;;;;;20.63;10.65;;;3.80;99.90;;;;;;5038767;28;20048;-46
2023/01/26 02:12:13;;;;;;;13.27;9.15;;;3.90;99.90;;;;;;4985926;28;20110;-46
2023/01/26 02:14:40;;;;;;;15.90;10.68;;;4.00;99.90;;;;;;5011659;28;20036;-46
2023/01/26 02:17:05;;;;;;;15.52;9.93;;;4.10;99.90;;;;;;5011621;28;20041;-46
2023/01/26 02:19:57;;;;;;;15.55;10.07;;;4.00;99.90;;;;;;5011762;28;20022;-47
2023/01/26 02:22:34;;;;;;;15.70;10.20;;;4.10;99.90;;;;;;4994911;28;20099;-46
2023/01/26 02:25:09;;;;;;;15.82;10.68;;;4.20;99.90;;;;;;5011515;28;20041;-45
2023/01/26 02:27:36;;;;;;;14.63;9.98;;;4.20;99.90;;;;;;5011466;28;20057;-47
2023/01/26 02:30:03;;;;;;;15.75;9.93;;;4.30;99.90;;;;;;5011468;28;20030;-46
2023/01/26 02:32:29;;;;;;;13.23;9.73;;;4.20;99.90;;;;;;4978692;28;20053;-47
2023/01/26 02:34:56;;;;;;;14.52;9.80;;;4.20;99.90;;;;;;5011274;28;20048;-46
2023/01/26 02:37:22;;;;;;;15.20;9.80;;;4.20;99.90;;;;;;5011239;28;20030;-47
2023/01/26 02:40:14;;;;;;;15.85;9.88;;;4.20;99.90;;;;;;5010447;28;20472;-47
2023/01/26 02:42:40;;;;;;;15.93;9.23;;;4.30;99.90;;;;;;5011281;28;20533;-47
2023/01/26 02:45:16;;;;;;;15.93;10.43;;;4.20;99.90;;;;;;5013126;28;20041;-47
2023/01/26 02:47:43;;;;;;;12.23;8.35;;;4.20;99.90;;;;;;5072919;28;20033;-47
2023/01/26 02:50:10;;;;;;;15.27;9.68;;;4.20;99.90;;;;;;5073122;28;20029;-46
2023/01/26 02:52:37;;;;;;;13.20;8.75;;;4.10;99.90;;;;;;5073332;28;20027;-47
2023/01/26 02:55:21;;;;;;;14.82;9.15;;;4.20;99.90;;;;;;5072880;28;20039;-47
2023/01/26 02:57:49;;;;;;;14.30;8.93;;;3.90;99.90;;;;;;5059517;28;20419;-47
2023/01/26 03:00:21;;;;;;;13.10;8.43;;;3.90;99.90;;;;;;5052739;28;20477;-47
2023/01/26 03:02:48;;;;;;;;;;;3.80;99.90;;;;;;5053348;28;20029;-46
2023/01/26 03:05:14;;;;;;;13.75;8.95;;;3.90;99.90;;;;;;5050838;28;19912;-46
2023/01/26 03:07:39;;;;;;;14.02;8.43;;;4.00;99.90;;;;;;5034122;28;20047;-46
2023/01/26 03:10:06;;;;;;;12.25;8.55;;;4.00;99.90;;;;;;5052695;28;20057;-47
2023/01/26 03:12:32;;;;;;;14.25;8.73;;;4.20;99.90;;;;;;5034120;28;20033;-46
2023/01/26 03:17:42;;;;;;;12.77;8.80;;;4.20;99.90;;;;;;5023360;28;20065;-46
2023/01/26 03:28:23;;;;;;;12.85;8.80;;;4.20;99.90;;;;;;5052896;28;20036;-47
2023/01/26 03:30:51;;;;;;;11.52;8.25;;;4.40;99.90;;;;;;5052567;28;20025;-47
2023/01/26 03:33:18;;;;;;;13.00;8.32;;;4.30;99.90;;;;;;5052728;28;20053;-46
2023/01/26 03:35:44;;;;;;;11.40;7.68;;;4.40;99.90;;;;;;5050675;28;20033;-47
2023/01/26 03:38:10;;;;;;;11.45;8.40;;;4.30;99.90;;;;;;5052466;28;20025;-46
2023/01/26 03:57:03;;;;;;;9.55;6.70;;;4.10;99.90;;;;;;5043794;28;20199;-45
2023/01/26 03:59:38;;;;;;;10.55;6.40;;;4.20;99.90;;;;;;5040700;28;20073;-48
2023/01/26 04:10:21;;;;;;;10.52;6.82;;;4.20;99.90;;;;;;5002002;28;20530;-47
2023/01/26 04:23:48;;;;;;;9.85;7.05;;;4.10;99.90;;;;;;5013975;28;20151;-46
2023/01/26 04:26:14;;;;;;;8.30;6.20;;;4.10;99.90;;;;;;5013701;28;20533;-47
2023/01/26 04:28:40;;;;;;;10.02;5.78;;;4.10;99.90;;;;;;5013603;28;20037;-47
2023/01/26 04:31:06;;;;;;;9.25;6.05;;;3.80;99.90;;;;;;5013563;28;20030;-47
2023/01/26 04:33:32;;;;;;;8.38;6.00;;;3.80;99.90;;;;;;5013392;28;20045;-47
2023/01/26 04:36:05;;;;;;;8.88;6.28;;;3.80;99.90;;;;;;4997272;28;20034;-47
2023/01/26 04:38:31;;;;;;;8.40;5.82;;;3.90;99.90;;;;;;5029764;28;20041;-46
2023/01/26 04:40:57;;;;;;;8.98;6.05;;;3.80;99.90;;;;;;5055583;28;20032;-47
2023/01/26 04:43:23;;;;;;;7.80;4.95;;;3.80;99.90;;;;;;5055477;28;20400;-46
2023/01/26 04:46:00;;;;;;;8.32;5.10;;;3.70;99.90;;;;;;5053155;28;20520;-47
2023/01/26 04:48:27;;;;;;;8.23;5.63;;;3.80;99.90;;;;;;5053505;28;20036;-46
2023/01/26 04:50:58;;;;;;;8.70;6.32;;;3.80;99.90;;;;;;5055031;28;20029;-46
2023/01/26 04:53:24;;;;;;;7.78;5.57;;;4.00;99.90;;;;;;5055288;28;20079;-47
2023/01/26 04:55:51;;;;;;;10.57;6.55;;;3.90;99.90;;;;;;5055283;28;20028;-47
2023/01/26 04:58:17;;;;;;;8.60;5.85;;;4.10;99.90;;;;;;5055062;28;20552;-46
2023/01/26 05:00:43;;;;;;;9.40;5.72;;;4.10;99.90;;;;;;5053037;28;20044;-47
2023/01/26 05:03:09;;;;;;;10.23;6.00;;;4.00;99.90;;;;;;5054308;28;20025;-46
2023/01/26 05:05:38;;;;;;;7.88;6.10;;;3.90;99.90;;;;;;5054980;28;20108;-47
2023/01/26 05:08:05;;;;;;;12.15;8.68;;;3.90;99.90;;;;;;5054706;28;20037;-47
2023/01/26 05:10:31;;;;;;;9.77;6.97;;;3.90;99.90;;;;;;5059373;28;20043;-52
2023/01/26 05:12:58;;;;;;;8.60;6.28;;;4.00;99.90;;;;;;5060082;28;20487;-47
2023/01/26 05:15:23;;;;;;;6.28;4.22;;;4.00;99.90;;;;;;5059773;28;20034;-48
2023/01/26 05:17:49;;;;;;;10.15;5.82;;;3.80;99.90;;;;;;5059509;28;20032;-46
2023/01/26 05:20:16;;;;;;;8.60;5.82;;;3.70;99.90;;;;;;5055414;28;20044;-47
2023/01/26 05:22:42;;;;;;;7.05;4.95;;;3.80;99.90;;;;;;5054656;28;20025;-47
2023/01/26 05:25:08;;;;;;;11.40;5.85;;;3.70;99.90;;;;;;5054435;28;20037;-47
2023/01/26 05:27:34;;;;;;;7.68;5.25;;;3.80;99.90;;;;;;5054915;28;20024;-46
2023/01/26 05:30:00;;;;;;;7.72;5.43;;;3.70;99.90;;;;;;5052331;28;20447;-46
2023/01/26 05:32:28;;;;;;;6.60;4.78;;;3.80;99.90;;;;;;5048822;28;20049;-46
2023/01/26 05:34:54;;;;;;;7.15;4.63;;;3.80;99.90;;;;;;5034965;28;20044;-47
2023/01/26 05:37:19;;;;;;;8.63;6.20;;;3.50;99.90;;;;;;5032469;28;20038;-46
2023/01/26 05:39:46;;;;;;;7.38;5.22;;;3.70;99.90;;;;;;5034293;28;20061;-46
2023/01/26 05:42:12;;;;;;;10.55;6.05;;;3.60;99.90;;;;;;5032122;28;20079;-46
2023/01/26 05:44:38;;;;;;;9.23;6.53;;;3.70;99.90;;;;;;5034300;28;20109;-47
2023/01/26 05:47:04;;;;;;;17.73;11.15;;;3.70;99.90;;;;;;5034141;28;20048;-47
2023/01/26 05:49:30;;;;;;;8.77;6.03;;;3.70;99.90;;;;;;5032269;28;20493;-46
2023/01/26 05:51:56;;;;;;;8.40;5.70;;;3.60;99.90;;;;;;5034292;28;20032;-46
2023/01/26 05:54:22;;;;;;;7.32;5.53;;;3.60;99.90;;;;;;5048831;28;20038;-47
2023/01/26 05:56:47;;;;;;;9.82;5.78;;;3.40;99.90;;;;;;5033910;28;20103;-47
2023/01/26 05:59:13;;;;;;;8.35;5.65;;;3.50;99.90;;;;;;5034150;28;20037;-46
2023/01/26 06:01:39;;;;;;;10.52;5.47;;;3.40;99.90;;;;;;5034184;28;20507;-47
2023/01/26 06:04:05;;;;;;;8.93;5.95;;;3.50;99.90;;;;;;5015667;28;20121;-46
2023/01/26 06:06:31;;;;;;;10.52;6.95;;;3.50;99.90;;;;;;5033896;28;20171;-46
2023/01/26 06:08:58;;;;;;;11.10;7.10;;;3.50;99.90;;;;;;5034269;28;20025;-47
2023/01/26 06:11:23;;;;;;;10.32;6.18;;;3.60;99.90;;;;;;5031903;28;20033;-47
2023/01/26 06:13:49;;;;;;;7.85;4.97;;;3.70;99.90;;;;;;5034014;28;20078;-46
2023/01/26 06:16:15;;;;;;;8.52;5.75;;;3.70;99.90;;;;;;5048460;28;20037;-47
2023/01/26 06:18:41;;;;;;;8.90;5.95;;;3.80;99.90;;;;;;5033603;28;20025;-47
2023/01/26 06:21:07;;;;;;;9.45;5.15;;;3.70;99.90;;;;;;5048526;28;20044;-47
2023/01/26 06:23:32;;;;;;;8.07;5.47;;;3.50;99.90;;;;;;5048164;28;20045;-47
2023/01/26 06:25:59;;;;;;;8.30;4.97;;;3.50;99.90;;;;;;5033672;28;20037;-47
2023/01/26 06:28:26;;;;;;;9.20;6.03;;;3.60;99.90;;;;;;5033568;28;20025;-46
2023/01/26 06:30:57;;;;;;;8.85;5.38;;;3.70;99.90;;;;;;5033732;28;20033;-46
2023/01/26 06:33:23;;;;;;;9.60;6.60;;;3.50;99.90;;;;;;5050643;28;20048;-46
2023/01/26 06:35:49;;;;;;;6.80;4.50;;;3.60;99.90;;;;;;5053152;28;20457;-47
2023/01/26 06:38:14;;;;;;;11.25;6.43;;;3.60;99.90;;;;;;5053367;28;20028;-47
2023/01/26 06:40:40;;;;;;;9.45;6.28;;;3.60;99.90;;;;;;5053049;28;20029;-46
2023/01/26 06:43:06;;;;;;;9.98;6.90;;;3.60;99.90;;;;;;5053211;28;20028;-47
2023/01/26 06:45:32;;;;;;;13.88;9.18;;;3.60;99.90;;;;;;5053378;28;20033;-47
2023/01/26 06:47:57;;;;;;;11.40;7.85;;;3.60;99.90;;;;;;5050872;28;20025;-46
2023/01/26 06:50:26;;;;;;;11.35;8.23;;;3.40;99.90;;;;;;5052081;28;20029;-46
2023/01/26 06:52:55;;;;;;;15.13;9.57;;;3.40;99.90;;;;;;5023444;28;20493;-47
2023/01/26 06:55:33;;;;;;;11.70;7.43;;;3.50;99.90;;;;;;5030792;28;20041;-47
2023/01/26 06:57:59;;;;;;;13.35;8.25;;;3.40;99.90;;;;;;5030852;28;20080;-46
2023/01/26 07:00:24;;;;;;;11.15;8.13;;;3.60;99.90;;;;;;5030794;28;20537;-46
2023/01/26 07:02:50;;;;;;;9.57;6.15;;;3.60;99.90;;;;;;4991331;28;20038;-47
2023/01/26 07:05:16;;;;;;;9.93;6.75;;;3.40;99.90;;;;;;4991221;28;20058;-46
2023/01/26 07:07:42;;;;;;;9.00;5.68;;;3.40;99.90;;;;;;4975197;28;20034;-46
2023/01/26 07:10:09;;;;;;;11.75;7.07;;;3.30;99.90;;;;;;4991432;28;20041;-47
2023/01/26 07:12:43;;;;;;;10.10;7.00;;;3.40;99.90;;;;;;4966950;28;20081;-46
2023/01/26 07:15:10;;;;;;;8.90;6.57;;;3.50;99.90;;;;;;4975743;28;20042;-46
2023/01/26 07:17:39;;;;;;;10.30;7.40;;;3.60;99.90;;;;;;4985618;28;20042;-46
2023/01/26 07:20:06;;;;;;;9.70;6.90;;;3.70;99.90;;;;;;4968401;28;20042;-47
2023/01/26 07:22:31;;;;;;;11.85;8.48;;;3.70;99.90;;;;;;4986580;28;20035;-47
2023/01/26 07:24:57;;;;;;;12.18;7.63;;;3.80;99.90;;;;;;4995216;28;20038;-47
2023/01/26 07:27:23;;;;;;;11.73;6.72;;;3.70;99.90;;;;;;4981672;28;20411;-47
2023/01/26 07:29:50;;;;;;;10.57;7.22;;;3.70;99.90;;;;;;4997477;28;20038;-46
2023/01/26 07:32:16;;;;;;;11.27;7.15;;;3.70;99.90;;;;;;4992447;28;20065;-46
2023/01/26 07:34:41;;;;;;;11.15;6.80;;;3.50;99.90;;;;;;5033502;28;20484;-47
2023/01/26 07:37:07;;;;;;;11.82;7.90;;;3.60;99.90;;;;;;5042538;28;20028;-46
2023/01/26 07:39:33;;;;;;;10.75;7.03;;;3.70;99.90;;;;;;5049973;28;20037;-47
2023/01/26 07:41:58;;;;;;;11.20;7.53;;;3.60;99.90;;;;;;5040834;28;20033;-46
2023/01/26 07:44:24;;;;;;;10.50;6.75;;;3.70;99.90;;;;;;5038911;28;20042;-47
2023/01/26 07:46:50;;;;;;;10.00;6.82;;;3.60;99.90;;;;;;5042102;28;20035;-48
2023/01/26 07:49:16;;;;;;;11.40;8.18;;;3.60;99.90;;;;;;5037658;28;20033;-47
2023/01/26 07:51:42;;;;;;;10.82;7.15;;;3.70;99.90;;;;;;5036991;28;20034;-47
2023/01/26 07:54:10;;;;;;;11.07;7.10;;;3.70;99.90;;;;;;5040215;28;20041;-47
2023/01/26 07:56:36;;;;;;;9.23;6.25;;;3.80;99.90;;;;;;5041995;28;20518;-47
2023/01/26 07:59:02;;;;;;;10.50;7.20;;;3.90;99.90;;;;;;5037730;28;20037;-46
2023/01/26 08:01:27;;;;;;;11.18;7.47;;;3.80;99.90;;;;;;5048236;28;20397;-47
2023/01/26 08:03:53;;;;;;;11.80;6.32;;;3.80;99.90;;;;;;5039020;28;20053;-47
2023/01/26 08:06:19;;;;;;;11.57;6.53;;;3.70;99.90;;;;;;5035272;28;20049;-46
2023/01/26 08:08:49;;;;;;;15.95;9.52;;;3.60;99.90;;;;;;5057285;28;20029;-47
2023/01/26 08:11:17;;;;;;;15.77;9.88;;;3.70;99.90;;;;;;5048855;28;20551;-46
2023/01/26 08:13:43;;;;;;;21.45;12.15;;;3.80;99.90;;;;;;5067786;28;20040;-47
2023/01/26 08:16:11;;;;;;;13.07;7.32;;;3.80;99.90;;;;;;5058887;28;20024;-46
2023/01/26 08:18:42;;;;;;;11.55;9.27;;;3.60;99.90;;;;;;5036118;28;20522;-47
2023/01/26 08:21:09;;;;;;;11.00;6.80;;;3.70;99.90;;;;;;5039023;28;20045;-47
2023/01/26 08:23:35;;;;;;;11.88;7.35;;;3.80;99.90;;;;;;5053830;28;20098;-46
2023/01/26 08:26:03;;;;;;;10.48;6.25;;;3.90;99.90;;;;;;5055877;28;20037;-46
2023/01/26 08:28:29;;;;;;;10.88;7.55;;;3.70;99.90;;;;;;5050646;28;20401;-47
2023/01/26 08:30:55;;;;;;;10.80;7.05;;;3.70;99.90;;;;;;5060805;28;20048;-47
2023/01/26 08:33:21;;;;;;;14.00;9.32;;;3.70;99.90;;;;;;5044610;28;20465;-47
2023/01/26 08:35:47;;;;;;;12.90;7.70;;;4.00;99.90;;;;;;5056895;28;20462;-47
2023/01/26 08:38:13;;;;;;;11.02;7.72;;;3.90;99.90;;;;;;5045368;28;20048;-47
2023/01/26 08:40:38;;;;;;;11.48;7.18;;;4.10;99.90;;;;;;5057656;28;20021;-46
2023/01/26 08:43:04;;;;;;;10.20;8.13;;;4.10;99.90;;;;;;5047831;28;20073;-46
2023/01/26 08:45:31;;;;;;;11.75;6.05;;;4.10;99.90;;;;;;5046792;28;20045;-47
2023/01/26 08:47:57;;;;;;;10.77;7.32;;;3.70;99.90;;;;;;5058102;28;20024;-46
2023/01/26 08:50:23;;;;;;;15.20;9.63;;;3.80;99.90;;;;;;5060971;28;20052;-46
2023/01/26 08:52:49;;;;;;;20.42;12.77;;;3.80;99.90;;;;;;5058807;28;20449;-47
2023/01/26 08:55:15;;;;;;;15.38;9.82;;;3.80;99.90;;;;;;5070054;28;20035;-48
2023/01/26 08:57:41;;;;;;;12.73;8.18;;;4.00;99.90;;;;;;5059579;28;20036;-47
2023/01/26 09:00:07;;;;;;;13.52;9.32;;;4.10;99.90;;;;;;5052794;28;20123;-48
2023/01/26 09:02:33;;;;;;;14.60;9.30;;;4.10;99.90;;;;;;5024499;28;20049;-47
2023/01/26 09:04:59;;;;;;;10.60;7.18;;;4.10;99.90;;;;;;5064201;28;20389;-47
2023/01/26 09:07:25;;;;;;;12.90;8.43;;;4.10;99.90;;;;;;5059811;28;20045;-46
2023/01/26 09:09:51;;;;;;;9.48;6.30;;;4.10;99.90;;;;;;5025055;28;20132;-46
2023/01/26 09:12:16;;;;;;;8.48;5.97;;;3.90;99.90;;;;;;5010963;28;20137;-46
2023/01/26 09:14:42;;;;;;;8.20;6.28;;;3.90;99.90;;;;;;5070306;28;20477;-47
2023/01/26 09:17:08;;;;;;;11.30;7.63;;;3.80;99.90;;;;;;5053722;28;20033;-46
2023/01/26 09:19:34;;;;;;;13.48;8.30;;;4.00;99.90;;;;;;5040665;28;20473;-46
2023/01/26 09:22:00;;;;;;;11.20;6.28;;;3.90;99.90;;;;;;5061753;28;20089;-47
2023/01/26 09:24:25;;;;;;;11.50;7.35;;;4.00;99.90;;;;;;5052508;28;20049;-46
2023/01/26 09:26:51;;;;;;;14.00;6.70;;;4.10;99.90;;;;;;5050128;28;20037;-47
2023/01/26 09:29:17;;;;;;;10.18;7.43;;;4.10;99.90;;;;;;5054301;28;20029;-46
2023/01/26 09:31:43;;;;;;;11.55;6.75;;;4.20;99.90;;;;;;5053121;28;20045;-46
2023/01/26 09:34:09;;;;;;;13.05;6.43;;;4.20;99.90;;;;;;5057186;28;20039;-46
2023/01/26 09:36:34;;;;;;;10.57;7.38;;;4.10;99.90;;;;;;5057454;28;20020;-46
2023/01/26 09:39:00;;;;;;;8.63;4.85;;;4.10;99.90;;;;;;5055422;28;20021;-46
2023/01/26 09:41:53;;;;;;;11.57;7.28;;;3.90;99.90;;;;;;5055494;28;20041;-46
2023/01/26 09:44:25;;;;;;;11.60;8.02;;;3.90;99.90;;;;;;5013702;28;20369;-47
2023/01/26 09:47:32;;;;;;;11.48;6.30;;;3.90;99.90;;;;;;5061469;28;20067;-47
2023/01/26 09:50:02;;;;;;;10.73;6.38;;;4.10;99.90;;;;;;5011887;28;20214;-48
2023/01/26 09:52:41;;;;;;;9.45;6.50;;;3.90;99.90;;;;;;5011443;28;20450;-49
2023/01/26 09:55:16;;;;;;;11.82;7.35;;;3.70;99.90;;;;;;5012874;28;20022;-47
2023/01/26 09:57:51;;;;;;;8.73;5.18;;;3.70;99.90;;;;;;4996006;28;20140;-49
2023/01/26 10:00:21;;;;;;;16.08;10.30;;;3.50;99.90;;;;;;4954984;28;20035;-47
2023/01/26 10:02:55;;;;;;;13.15;7.32;;;3.60;99.90;;;;;;4947924;28;20441;-47
2023/01/26 10:05:38;;;;;;;20.85;10.48;;;3.70;99.90;;;;;;4958111;28;20051;-49
2023/01/26 10:08:10;;;;;;;19.30;11.15;;;3.80;99.90;;;;;;4949862;28;20039;-49
2023/01/26 10:10:45;;;;;;;11.32;7.00;;;3.90;99.90;;;;;;4948015;28;20035;-48
2023/01/26 10:13:15;;;;;;;15.60;9.13;;;3.80;99.90;;;;;;4952245;28;20083;-46
2023/01/26 10:15:46;;;;;;;7.43;4.93;;;3.90;99.90;;;;;;4954056;28;20031;-47
2023/01/26 10:18:20;;;;;;;20.02;11.82;;;3.80;99.90;;;;;;4931126;28;20045;-48
2023/01/26 10:20:50;;;;;;;26.55;14.15;;;3.90;99.90;;;;;;4948338;28;20098;-46
2023/01/26 10:23:18;;;;;;;33.45;16.23;;;4.20;99.90;;;;;;4953117;28;20446;-48
2023/01/26 10:25:45;;;;;;;21.98;12.07;;;4.30;99.90;;;;;;4987397;28;20046;-47
2023/01/26 10:28:19;;;;;;;24.77;13.02;;;4.10;99.90;;;;;;5012861;28;20105;-46
2023/01/26 10:30:47;;;;;;;12.18;8.80;;;4.20;99.90;;;;;;5027924;28;20041;-47
2023/01/26 10:33:36;;;;;;;10.68;7.47;;;4.00;99.90;;;;;;5066237;28;20083;-49
2023/01/26 10:36:05;;;;;;;13.43;6.82;;;3.90;99.90;;;;;;5022002;28;20048;-50
2023/01/26 10:38:34;;;;;;;18.23;9.10;;;3.90;99.90;;;;;;5043904;28;20046;-48
2023/01/26 10:41:02;;;;;;;10.68;7.07;;;4.00;99.90;;;;;;5053420;28;20087;-48
2023/01/26 10:43:30;;;;;;;9.98;7.15;;;3.80;99.90;;;;;;5054884;28;20035;-49
2023/01/26 10:45:55;;;;;;;12.63;9.23;;;3.80;99.90;;;;;;5053623;28;20551;-47
2023/01/26 10:48:25;;;;;;;13.65;9.45;;;3.80;99.90;;;;;;5052993;28;20124;-52
2023/01/26 10:50:52;;;;;;;13.40;7.10;;;4.00;99.90;;;;;;5054806;28;20086;-49
2023/01/26 10:53:28;;;;;;;12.27;7.72;;;4.00;99.90;;;;;;5070244;28;20535;-47
2023/01/26 10:56:15;;;;;;;13.50;9.13;;;3.90;99.90;;;;;;5066590;28;20094;-49
2023/01/26 10:58:51;;;;;;;15.75;9.50;;;3.90;99.90;;;;;;5032088;28;20128;-49
2023/01/26 11:01:21;;;;;;;14.88;8.55;;;4.00;99.90;;;;;;5021601;28;20038;-49
2023/01/26 11:04:13;;;;;;;11.55;7.00;;;4.10;99.90;;;;;;5028246;28;20150;-50
2023/01/26 11:06:39;;;;;;;10.05;6.75;;;4.10;99.90;;;;;;5028879;28;20054;-49
2023/01/26 11:09:25;;;;;;;11.00;6.88;;;4.00;99.90;;;;;;5029486;28;20048;-49
2023/01/26 11:12:18;;;;;;;10.20;8.07;;;4.00;99.90;;;;;;5030906;28;20025;-49
2023/01/26 11:15:02;;;;;;;11.75;7.97;;;4.10;99.90;;;;;;5033498;28;20174;-48
2023/01/26 11:17:46;;;;;;;10.57;7.45;;;4.10;99.90;;;;;;5032343;28;20037;-50
2023/01/26 11:20:43;;;;;;;12.40;7.35;;;4.30;99.90;;;;;;5026111;28;20505;-48
2023/01/26 11:23:12;;;;;;;11.65;7.72;;;4.10;99.90;;;;;;4969915;28;20077;-49
2023/01/26 11:26:00;;;;;;;13.10;8.93;;;4.40;99.90;;;;;;4965096;28;20133;-49
2023/01/26 11:28:34;;;;;;;14.40;8.93;;;4.50;99.90;;;;;;4973812;28;20089;-49
2023/01/26 11:31:44;;;;;;;15.88;11.43;;;4.40;99.90;;;;;;5006915;28;20041;-48
2023/01/26 11:34:28;;;;;;;13.88;10.43;;;4.30;99.90;;;;;;4992740;28;20057;-49
2023/01/26 11:37:11;;;;;;;10.35;6.70;;;4.40;99.90;;;;;;5008343;28;20137;-49
2023/01/26 11:40:21;;;;;;;11.45;8.20;;;4.20;99.90;;;;;;5008170;28;20552;-47
2023/01/26 11:42:56;;;;;;;14.75;9.02;;;4.20;99.90;;;;;;5002354;28;20053;-49
2023/01/26 11:45:21;;;;;;;18.30;10.77;;;4.30;99.90;;;;;;5003265;28;20101;-49
2023/01/26 11:48:00;;;;;;;22.75;11.57;;;4.40;99.90;;;;;;5009926;28;20054;-48
2023/01/26 11:50:35;;;;;;;13.43;9.60;;;4.50;99.90;;;;;;5000300;28;20038;-48
2023/01/26 11:53:26;;;;;;;24.27;13.52;;;4.30;99.90;;;;;;5000591;28;20137;-48
2023/01/26 11:55:52;;;;;;;12.43;8.15;;;4.30;99.90;;;;;;5009063;28;20026;-49
2023/01/26 11:58:38;;;;;;;12.05;8.32;;;4.10;99.90;;;;;;5002278;28;20516;-49
2023/01/26 12:01:21;;;;;;;17.73;11.02;;;4.30;99.90;;;;;;5024488;28;20041;-49
2023/01/26 12:03:49;;;;;;;10.85;7.20;;;4.30;99.90;;;;;;5036663;28;20084;-49
2023/01/26 12:06:17;;;;;;;10.07;6.82;;;4.30;99.90;;;;;;5035269;28;20042;-48
2023/01/26 12:08:51;;;;;;;12.13;8.52;;;4.20;99.90;;;;;;5027922;28;20029;-48
2023/01/26 12:11:27;;;;;;;13.57;9.90;;;4.30;99.90;;;;;;4990622;28;20049;-47
2023/01/26 12:14:34;;;;;;;14.32;9.95;;;4.40;99.90;;;;;;5028550;28;20022;-50
2023/01/26 12:17:08;;;;;;;17.15;11.27;;;4.50;99.90;;;;;;4971787;28;20035;-49
2023/01/26 12:19:46;;;;;;;12.25;8.18;;;4.50;99.90;;;;;;4969897;28;20070;-50
2023/01/26 12:22:27;;;;;;;13.20;8.95;;;4.50;99.90;;;;;;4966755;28;20109;-49
2023/01/26 12:25:01;;;;;;;13.20;9.80;;;4.50;99.90;;;;;;4987530;28;20039;-47
2023/01/26 12:27:55;;;;;;;13.55;9.07;;;4.40;99.90;;;;;;4989293;28;20451;-49
2023/01/26 12:30:32;;;;;;;14.18;9.27;;;4.10;99.90;;;;;;4915092;29;20068;-49
2023/01/26 12:32:58;;;;;;;12.25;8.02;;;4.20;99.90;;;;;;4914945;29;20370;-48
2023/01/26 12:36:00;;;;;;;14.88;9.93;;;4.10;99.90;;;;;;4914599;29;20101;-48
2023/01/26 12:38:29;;;;;;;;;;;4.30;99.90;;;;;;4915720;29;20032;-50
2023/01/26 12:41:08;;;;;;;14.68;9.00;;;4.40;99.90;;;;;;4915341;29;19943;-48
2023/01/26 12:43:47;;;;;;;13.50;8.38;;;4.30;99.90;;;;;;4879013;29;20044;-49
2023/01/26 12:46:16;;;;;;;13.52;9.68;;;4.20;99.90;;;;;;4893100;29;20059;-49
2023/01/26 12:48:51;;;;;;;14.80;9.65;;;4.20;99.90;;;;;;4896820;29;20066;-49
2023/01/26 12:51:32;;;;;;;12.48;9.30;;;4.30;99.90;;;;;;4919047;29;20047;-49
2023/01/26 12:54:20;;;;;;;12.73;8.70;;;4.50;99.90;;;;;;4934196;29;20503;-49
2023/01/26 12:56:53;;;;;;;10.43;7.70;;;4.30;99.90;;;;;;4948997;29;20122;-49
2023/01/26 12:59:26;;;;;;;7.30;5.60;;;4.30;99.90;;;;;;4949255;29;20181;-49
2023/01/26 13:01:51;;;;;;;8.60;6.38;;;4.10;99.90;;;;;;4953769;29;20036;-50
2023/01/26 13:04:18;;;;;;;10.48;6.95;;;4.00;99.90;;;;;;4950534;29;20476;-48
2023/01/26 13:06:43;;;;;;;8.13;5.30;;;4.00;99.90;;;;;;4965019;28;20050;-49
2023/01/26 13:09:14;;;;;;;9.10;6.32;;;4.00;99.90;;;;;;5008405;28;20177;-49
2023/01/26 13:11:45;;;;;;;10.20;7.10;;;3.90;99.90;;;;;;5012832;28;20084;-49
2023/01/26 13:14:37;;;;;;;10.65;7.22;;;3.80;99.90;;;;;;5024914;28;20120;-48
2023/01/26 13:17:15;;;;;;;9.32;7.13;;;4.00;99.90;;;;;;5047496;28;20025;-50
2023/01/26 13:19:43;;;;;;;9.00;6.93;;;4.10;99.90;;;;;;5046165;28;20032;-48
2023/01/26 13:22:39;;;;;;;11.68;7.68;;;4.30;99.90;;;;;;5062189;28;20032;-49
2023/01/26 13:25:17;;;;;;;10.55;6.47;;;4.30;99.90;;;;;;5050077;28;20106;-48
2023/01/26 13:27:54;;;;;;;9.48;7.13;;;4.30;99.90;;;;;;5052791;28;20132;-50
2023/01/26 13:30:25;;;;;;;8.60;5.88;;;4.10;99.90;;;;;;5041329;28;20033;-49
2023/01/26 13:33:12;;;;;;;8.43;5.50;;;3.80;99.90;;;;;;5057727;28;20039;-50
2023/01/26 13:35:39;;;;;;;10.63;6.95;;;3.60;99.90;;;;;;5054236;28;20053;-51
2023/01/26 13:38:16;;;;;;;10.93;7.68;;;3.70;99.90;;;;;;5049708;28;20029;-58
2023/01/26 13:40:45;;;;;;;8.38;5.95;;;3.70;99.90;;;;;;5057446;28;20033;-48
2023/01/26 13:43:20;;;;;;;9.07;6.30;;;3.70;99.90;;;;;;5043071;28;20101;-48
2023/01/26 13:46:07;;;;;;;10.25;7.38;;;3.60;99.90;;;;;;5044295;28;20040;-48
2023/01/26 13:48:40;;;;;;;9.40;6.43;;;3.30;99.90;;;;;;5037277;28;20124;-53
2023/01/26 13:51:11;;;;;;;11.25;6.72;;;3.40;99.90;;;;;;5042613;28;20041;-49
2023/01/26 13:53:40;;;;;;;8.98;5.82;;;3.30;99.90;;;;;;5035458;28;20457;-48